Weather at North Michigan Hospitals Inc Heliport

Public forecast

Using degrees Fahrenheit for public forecast. Weather courtesy of forecast.io.

Closest aviation weather report (METAR) to North Michigan Hospitals Inc Heliport

Closest report is Harbor Springs Airport, 5.8 nm (10.7 km) NNE. Retrieved 2021/08/01 00:35 UTC (21 minutes ago):

KMGN 010035Z AUTO 28003KT 10SM CLR 19/16 A2989 RMK AO2 T01930166

Closest aviation forecast (TAF) to North Michigan Hospitals Inc Heliport

Closest forecast is Pellston Regional Airport of Emmet County Airport, 15.8 nm (29.2 km) NNE. Retrieved 2021-08-01 00:22 UTC (34 minutes ago):

TAF KPLN 312320Z 0100/0124 32005KT P6SM VCSH SCT025 BKN050 FM011000 34007KT 6SM -SHRA BKN025 OVC050 FM011600 35010KT P6SM SCT050